sensor_id;sensor_type;location;lat;lon;timestamp;temperature;humidity
29201;DHT22;16244;51.956;12.980;2022-12-10T00:01:30;-0.40;98.70
29201;DHT22;16244;51.956;12.980;2022-12-10T00:03:58;-0.40;98.70
29201;DHT22;16244;51.956;12.980;2022-12-10T00:06:27;-0.40;98.70
29201;DHT22;16244;51.956;12.980;2022-12-10T00:08:54;-0.40;98.70
29201;DHT22;16244;51.956;12.980;2022-12-10T00:11:23;-0.40;98.70
29201;DHT22;16244;51.956;12.980;2022-12-10T00:13:52;-0.40;98.80
29201;DHT22;16244;51.956;12.980;2022-12-10T00:16:21;-0.30;98.70
29201;DHT22;16244;51.956;12.980;2022-12-10T00:18:48;-0.40;98.50
29201;DHT22;16244;51.956;12.980;2022-12-10T00:21:18;-0.50;98.60
29201;DHT22;16244;51.956;12.980;2022-12-10T00:23:46;-0.50;98.80
29201;DHT22;16244;51.956;12.980;2022-12-10T00:26:15;-0.50;98.70
29201;DHT22;16244;51.956;12.980;2022-12-10T00:28:43;-0.50;98.80
29201;DHT22;16244;51.956;12.980;2022-12-10T00:31:13;-0.50;98.70
29201;DHT22;16244;51.956;12.980;2022-12-10T00:33:41;-0.60;98.70
29201;DHT22;16244;51.956;12.980;2022-12-10T00:36:11;-0.60;98.60
29201;DHT22;16244;51.956;12.980;2022-12-10T00:38:39;-0.50;98.90
29201;DHT22;16244;51.956;12.980;2022-12-10T00:41:07;-0.50;98.80
29201;DHT22;16244;51.956;12.980;2022-12-10T00:43:34;-0.40;98.60
29201;DHT22;16244;51.956;12.980;2022-12-10T00:46:01;-0.40;98.90
29201;DHT22;16244;51.956;12.980;2022-12-10T00:48:30;-0.40;98.40
29201;DHT22;16244;51.956;12.980;2022-12-10T00:50:59;-0.40;98.30
29201;DHT22;16244;51.956;12.980;2022-12-10T00:53:28;-0.50;98.20
29201;DHT22;16244;51.956;12.980;2022-12-10T00:55:56;-0.40;98.60
29201;DHT22;16244;51.956;12.980;2022-12-10T00:58:23;-0.40;98.30
29201;DHT22;16244;51.956;12.980;2022-12-10T01:00:50;-0.30;98.30
29201;DHT22;16244;51.956;12.980;2022-12-10T01:03:17;-0.30;98.30
29201;DHT22;16244;51.956;12.980;2022-12-10T01:05:46;-0.30;98.00
29201;DHT22;16244;51.956;12.980;2022-12-10T01:08:13;-0.30;98.00
29201;DHT22;16244;51.956;12.980;2022-12-10T01:10:40;-0.30;98.00
29201;DHT22;16244;51.956;12.980;2022-12-10T01:13:07;-0.30;97.90
29201;DHT22;16244;51.956;12.980;2022-12-10T01:15:37;-0.40;98.20
29201;DHT22;16244;51.956;12.980;2022-12-10T01:18:04;-0.40;98.20
29201;DHT22;16244;51.956;12.980;2022-12-10T01:20:34;-0.40;98.10
29201;DHT22;16244;51.956;12.980;2022-12-10T01:23:03;-0.40;98.00
29201;DHT22;16244;51.956;12.980;2022-12-10T01:25:33;-0.50;98.10
29201;DHT22;16244;51.956;12.980;2022-12-10T01:28:00;-0.40;98.10
29201;DHT22;16244;51.956;12.980;2022-12-10T01:30:43;-0.40;98.20
29201;DHT22;16244;51.956;12.980;2022-12-10T01:33:10;-0.40;98.00
29201;DHT22;16244;51.956;12.980;2022-12-10T01:35:37;-0.40;98.00
29201;DHT22;16244;51.956;12.980;2022-12-10T01:38:13;-0.50;98.00
29201;DHT22;16244;51.956;12.980;2022-12-10T01:40:40;-0.40;98.60
29201;DHT22;16244;51.956;12.980;2022-12-10T01:43:20;-0.50;97.90
29201;DHT22;16244;51.956;12.980;2022-12-10T01:45:47;-0.50;98.20
29201;DHT22;16244;51.956;12.980;2022-12-10T01:48:14;-0.40;98.20
29201;DHT22;16244;51.956;12.980;2022-12-10T01:50:42;-0.30;98.00
29201;DHT22;16244;51.956;12.980;2022-12-10T01:53:12;-0.30;97.90
29201;DHT22;16244;51.956;12.980;2022-12-10T01:55:44;-0.30;98.00
29201;DHT22;16244;51.956;12.980;2022-12-10T01:58:28;-0.30;97.80
29201;DHT22;16244;51.956;12.980;2022-12-10T02:01:05;-0.30;97.70
29201;DHT22;16244;51.956;12.980;2022-12-10T02:03:41;-0.40;97.70
29201;DHT22;16244;51.956;12.980;2022-12-10T02:06:35;-0.40;97.80
29201;DHT22;16244;51.956;12.980;2022-12-10T02:09:38;-0.30;98.00
29201;DHT22;16244;51.956;12.980;2022-12-10T02:12:28;-0.30;97.60
29201;DHT22;16244;51.956;12.980;2022-12-10T02:15:00;-0.30;97.50
29201;DHT22;16244;51.956;12.980;2022-12-10T02:17:34;-0.30;97.60
29201;DHT22;16244;51.956;12.980;2022-12-10T02:20:06;-0.30;97.60
29201;DHT22;16244;51.956;12.980;2022-12-10T02:22:38;-0.30;97.60
29201;DHT22;16244;51.956;12.980;2022-12-10T02:25:08;-0.40;97.60
29201;DHT22;16244;51.956;12.980;2022-12-10T02:27:44;-0.20;97.70
29201;DHT22;16244;51.956;12.980;2022-12-10T02:30:14;-0.30;97.50
29201;DHT22;16244;51.956;12.980;2022-12-10T02:32:43;-0.30;97.20
29201;DHT22;16244;51.956;12.980;2022-12-10T02:35:14;-0.40;97.60
29201;DHT22;16244;51.956;12.980;2022-12-10T02:37:46;-0.30;97.40
29201;DHT22;16244;51.956;12.980;2022-12-10T02:40:18;-0.30;97.60
29201;DHT22;16244;51.956;12.980;2022-12-10T02:42:48;-0.20;97.40
29201;DHT22;16244;51.956;12.980;2022-12-10T02:45:18;-0.30;97.40
29201;DHT22;16244;51.956;12.980;2022-12-10T02:47:47;-0.30;97.40
29201;DHT22;16244;51.956;12.980;2022-12-10T02:50:16;-0.30;97.50
29201;DHT22;16244;51.956;12.980;2022-12-10T02:52:44;-0.40;97.50
29201;DHT22;16244;51.956;12.980;2022-12-10T02:55:13;-0.40;97.50
29201;DHT22;16244;51.956;12.980;2022-12-10T02:57:48;-0.30;97.40
29201;DHT22;16244;51.956;12.980;2022-12-10T03:00:19;-0.30;97.30
29201;DHT22;16244;51.956;12.980;2022-12-10T03:03:16;-0.50;97.60
29201;DHT22;16244;51.956;12.980;2022-12-10T03:05:48;-0.40;97.70
29201;DHT22;16244;51.956;12.980;2022-12-10T03:08:22;-0.50;97.50
29201;DHT22;16244;51.956;12.980;2022-12-10T03:10:56;-0.50;97.40
29201;DHT22;16244;51.956;12.980;2022-12-10T03:13:31;-0.50;97.60
29201;DHT22;16244;51.956;12.980;2022-12-10T03:16:02;-0.50;97.70
29201;DHT22;16244;51.956;12.980;2022-12-10T03:18:31;-0.50;97.80
29201;DHT22;16244;51.956;12.980;2022-12-10T03:21:03;-0.50;97.70
29201;DHT22;16244;51.956;12.980;2022-12-10T03:23:32;-0.50;97.80
29201;DHT22;16244;51.956;12.980;2022-12-10T03:26:02;-0.60;97.70
29201;DHT22;16244;51.956;12.980;2022-12-10T03:28:32;-0.60;97.90
29201;DHT22;16244;51.956;12.980;2022-12-10T03:31:03;-0.60;97.90
29201;DHT22;16244;51.956;12.980;2022-12-10T03:33:31;-0.60;97.80
29201;DHT22;16244;51.956;12.980;2022-12-10T03:36:00;-0.40;98.00
29201;DHT22;16244;51.956;12.980;2022-12-10T03:38:27;-0.50;97.60
29201;DHT22;16244;51.956;12.980;2022-12-10T03:40:54;-0.40;97.60
29201;DHT22;16244;51.956;12.980;2022-12-10T03:43:22;-0.30;97.40
29201;DHT22;16244;51.956;12.980;2022-12-10T03:45:49;-0.40;97.40
29201;DHT22;16244;51.956;12.980;2022-12-10T03:48:17;-0.40;97.50
29201;DHT22;16244;51.956;12.980;2022-12-10T03:50:45;-0.40;97.40
29201;DHT22;16244;51.956;12.980;2022-12-10T03:53:12;-0.40;97.50
29201;DHT22;16244;51.956;12.980;2022-12-10T03:55:39;-0.40;97.60
29201;DHT22;16244;51.956;12.980;2022-12-10T03:58:06;-0.40;97.40
29201;DHT22;16244;51.956;12.980;2022-12-10T04:00:33;-0.40;97.40
29201;DHT22;16244;51.956;12.980;2022-12-10T04:03:01;-0.30;97.30
29201;DHT22;16244;51.956;12.980;2022-12-10T04:05:29;-0.40;97.40
29201;DHT22;16244;51.956;12.980;2022-12-10T04:07:56;-0.40;97.30
29201;DHT22;16244;51.956;12.980;2022-12-10T04:10:23;-0.40;97.50
29201;DHT22;16244;51.956;12.980;2022-12-10T04:12:51;-0.30;97.40
29201;DHT22;16244;51.956;12.980;2022-12-10T04:15:32;-0.40;97.30
29201;DHT22;16244;51.956;12.980;2022-12-10T04:18:31;-0.40;97.40
29201;DHT22;16244;51.956;12.980;2022-12-10T04:20:59;-0.40;97.30
29201;DHT22;16244;51.956;12.980;2022-12-10T04:23:45;-0.50;97.50
29201;DHT22;16244;51.956;12.980;2022-12-10T04:26:29;-0.50;97.60
29201;DHT22;16244;51.956;12.980;2022-12-10T04:29:11;-0.50;97.60
29201;DHT22;16244;51.956;12.980;2022-12-10T04:31:38;-0.50;97.60
29201;DHT22;16244;51.956;12.980;2022-12-10T04:34:05;-0.50;97.60
29201;DHT22;16244;51.956;12.980;2022-12-10T04:36:34;-0.40;97.60
29201;DHT22;16244;51.956;12.980;2022-12-10T04:39:01;-0.50;97.60
29201;DHT22;16244;51.956;12.980;2022-12-10T04:41:28;-0.50;97.60
29201;DHT22;16244;51.956;12.980;2022-12-10T04:43:55;-0.50;97.60
29201;DHT22;16244;51.956;12.980;2022-12-10T04:46:22;-0.40;97.80
29201;DHT22;16244;51.956;12.980;2022-12-10T04:48:50;-0.50;97.60
29201;DHT22;16244;51.956;12.980;2022-12-10T04:51:17;-0.50;97.70
29201;DHT22;16244;51.956;12.980;2022-12-10T04:53:45;-0.50;97.90
29201;DHT22;16244;51.956;12.980;2022-12-10T04:56:13;-0.40;97.80
29201;DHT22;16244;51.956;12.980;2022-12-10T04:58:41;-0.40;97.60
29201;DHT22;16244;51.956;12.980;2022-12-10T05:01:10;-0.50;97.80
29201;DHT22;16244;51.956;12.980;2022-12-10T05:03:39;-0.50;97.90
29201;DHT22;16244;51.956;12.980;2022-12-10T05:06:08;-0.40;97.60
29201;DHT22;16244;51.956;12.980;2022-12-10T05:08:37;-0.50;97.50
29201;DHT22;16244;51.956;12.980;2022-12-10T05:11:08;-0.50;97.50
29201;DHT22;16244;51.956;12.980;2022-12-10T05:13:36;-0.50;97.60
29201;DHT22;16244;51.956;12.980;2022-12-10T05:16:05;-0.50;97.70
29201;DHT22;16244;51.956;12.980;2022-12-10T05:18:32;-0.60;97.60
29201;DHT22;16244;51.956;12.980;2022-12-10T05:21:01;-0.60;97.80
29201;DHT22;16244;51.956;12.980;2022-12-10T05:23:29;-0.50;97.70
29201;DHT22;16244;51.956;12.980;2022-12-10T05:25:59;-0.60;97.70
29201;DHT22;16244;51.956;12.980;2022-12-10T05:28:29;-0.60;97.80
29201;DHT22;16244;51.956;12.980;2022-12-10T05:30:56;-0.60;97.90
29201;DHT22;16244;51.956;12.980;2022-12-10T05:33:24;-0.50;97.60
29201;DHT22;16244;51.956;12.980;2022-12-10T05:35:53;-0.60;97.60
29201;DHT22;16244;51.956;12.980;2022-12-10T05:38:21;-0.70;97.80
29201;DHT22;16244;51.956;12.980;2022-12-10T05:40:48;-0.70;97.90
29201;DHT22;16244;51.956;12.980;2022-12-10T05:43:16;-0.80;97.90
29201;DHT22;16244;51.956;12.980;2022-12-10T05:45:45;-0.70;98.00
29201;DHT22;16244;51.956;12.980;2022-12-10T05:48:14;-0.70;97.90
29201;DHT22;16244;51.956;12.980;2022-12-10T05:50:42;-0.60;97.90
29201;DHT22;16244;51.956;12.980;2022-12-10T05:53:09;-0.70;98.00
29201;DHT22;16244;51.956;12.980;2022-12-10T05:55:40;-0.80;98.10
29201;DHT22;16244;51.956;12.980;2022-12-10T05:58:07;-0.80;98.10
29201;DHT22;16244;51.956;12.980;2022-12-10T06:00:34;-0.80;98.10
29201;DHT22;16244;51.956;12.980;2022-12-10T06:03:02;-0.80;98.10
29201;DHT22;16244;51.956;12.980;2022-12-10T06:05:31;-0.80;98.20
29201;DHT22;16244;51.956;12.980;2022-12-10T06:08:02;-0.80;98.40
29201;DHT22;16244;51.956;12.980;2022-12-10T06:10:29;-0.70;98.40
29201;DHT22;16244;51.956;12.980;2022-12-10T06:12:56;-0.70;98.20
29201;DHT22;16244;51.956;12.980;2022-12-10T06:15:23;-0.70;98.10
29201;DHT22;16244;51.956;12.980;2022-12-10T06:17:50;-0.70;98.00
29201;DHT22;16244;51.956;12.980;2022-12-10T06:20:19;-0.70;98.10
29201;DHT22;16244;51.956;12.980;2022-12-10T06:22:46;-0.70;98.10
29201;DHT22;16244;51.956;12.980;2022-12-10T06:25:13;-0.60;98.30
29201;DHT22;16244;51.956;12.980;2022-12-10T06:27:41;-0.70;97.90
29201;DHT22;16244;51.956;12.980;2022-12-10T06:30:09;-0.70;98.00
29201;DHT22;16244;51.956;12.980;2022-12-10T06:32:36;-0.70;97.90
29201;DHT22;16244;51.956;12.980;2022-12-10T06:35:04;-0.60;97.90
29201;DHT22;16244;51.956;12.980;2022-12-10T06:37:33;-0.60;98.00
29201;DHT22;16244;51.956;12.980;2022-12-10T06:40:00;-0.60;97.80
29201;DHT22;16244;51.956;12.980;2022-12-10T06:42:27;-0.60;98.00
29201;DHT22;16244;51.956;12.980;2022-12-10T06:44:55;-0.60;97.80
29201;DHT22;16244;51.956;12.980;2022-12-10T06:47:22;-0.50;97.70
29201;DHT22;16244;51.956;12.980;2022-12-10T06:49:49;-0.60;97.80
29201;DHT22;16244;51.956;12.980;2022-12-10T06:52:16;-0.70;98.10
29201;DHT22;16244;51.956;12.980;2022-12-10T06:54:45;-0.60;98.10
29201;DHT22;16244;51.956;12.980;2022-12-10T06:57:13;-0.70;97.90
29201;DHT22;16244;51.956;12.980;2022-12-10T06:59:40;-0.60;97.90
29201;DHT22;16244;51.956;12.980;2022-12-10T07:02:07;-0.70;97.70
29201;DHT22;16244;51.956;12.980;2022-12-10T07:04:35;-0.60;97.80
29201;DHT22;16244;51.956;12.980;2022-12-10T07:07:02;-0.60;97.80
29201;DHT22;16244;51.956;12.980;2022-12-10T07:09:29;-0.70;97.70
29201;DHT22;16244;51.956;12.980;2022-12-10T07:11:59;-0.70;97.90
29201;DHT22;16244;51.956;12.980;2022-12-10T07:14:26;-0.80;98.00
29201;DHT22;16244;51.956;12.980;2022-12-10T07:16:53;-0.80;98.40
29201;DHT22;16244;51.956;12.980;2022-12-10T07:19:20;-0.70;98.30
29201;DHT22;16244;51.956;12.980;2022-12-10T07:21:47;-0.70;98.20
29201;DHT22;16244;51.956;12.980;2022-12-10T07:24:17;-0.80;98.20
29201;DHT22;16244;51.956;12.980;2022-12-10T07:26:46;-0.70;98.10
29201;DHT22;16244;51.956;12.980;2022-12-10T07:29:17;-0.70;98.20
29201;DHT22;16244;51.956;12.980;2022-12-10T07:31:45;-0.60;98.10
29201;DHT22;16244;51.956;12.980;2022-12-10T07:34:12;-0.60;97.80
29201;DHT22;16244;51.956;12.980;2022-12-10T07:36:40;-0.60;97.80
29201;DHT22;16244;51.956;12.980;2022-12-10T07:39:09;-0.70;97.90
29201;DHT22;16244;51.956;12.980;2022-12-10T07:41:43;-0.60;97.80
29201;DHT22;16244;51.956;12.980;2022-12-10T07:44:12;-0.60;97.80
29201;DHT22;16244;51.956;12.980;2022-12-10T07:46:40;-0.70;97.80
29201;DHT22;16244;51.956;12.980;2022-12-10T07:49:07;-0.70;97.70
29201;DHT22;16244;51.956;12.980;2022-12-10T07:51:35;-0.60;97.80
29201;DHT22;16244;51.956;12.980;2022-12-10T07:54:02;-0.70;97.70
29201;DHT22;16244;51.956;12.980;2022-12-10T07:56:30;-0.80;97.80
29201;DHT22;16244;51.956;12.980;2022-12-10T07:58:57;-0.70;98.00
29201;DHT22;16244;51.956;12.980;2022-12-10T08:01:25;-0.70;97.80
29201;DHT22;16244;51.956;12.980;2022-12-10T08:03:55;-0.70;97.80
29201;DHT22;16244;51.956;12.980;2022-12-10T08:06:25;-0.80;98.00
29201;DHT22;16244;51.956;12.980;2022-12-10T08:08:53;-0.70;97.80
29201;DHT22;16244;51.956;12.980;2022-12-10T08:11:21;-0.80;97.90
29201;DHT22;16244;51.956;12.980;2022-12-10T08:13:49;-0.80;97.80
29201;DHT22;16244;51.956;12.980;2022-12-10T08:16:18;-0.70;97.90
29201;DHT22;16244;51.956;12.980;2022-12-10T08:18:47;-0.70;97.90
29201;DHT22;16244;51.956;12.980;2022-12-10T08:21:17;-0.60;97.80
29201;DHT22;16244;51.956;12.980;2022-12-10T08:23:45;-0.50;97.80
29201;DHT22;16244;51.956;12.980;2022-12-10T08:26:14;-0.60;97.40
29201;DHT22;16244;51.956;12.980;2022-12-10T08:28:42;-0.70;97.70
29201;DHT22;16244;51.956;12.980;2022-12-10T08:31:10;-0.80;97.90
29201;DHT22;16244;51.956;12.980;2022-12-10T08:33:38;-0.70;97.80
29201;DHT22;16244;51.956;12.980;2022-12-10T08:36:08;-0.70;97.90
29201;DHT22;16244;51.956;12.980;2022-12-10T08:38:37;-0.60;97.70
29201;DHT22;16244;51.956;12.980;2022-12-10T08:41:07;-0.50;97.60
29201;DHT22;16244;51.956;12.980;2022-12-10T08:43:35;-0.60;97.30
29201;DHT22;16244;51.956;12.980;2022-12-10T08:46:02;-0.60;97.40
29201;DHT22;16244;51.956;12.980;2022-12-10T08:48:30;-0.60;97.40
29201;DHT22;16244;51.956;12.980;2022-12-10T08:50:57;-0.60;97.30
29201;DHT22;16244;51.956;12.980;2022-12-10T08:53:24;-0.70;97.20
29201;DHT22;16244;51.956;12.980;2022-12-10T08:55:53;-0.60;97.40
29201;DHT22;16244;51.956;12.980;2022-12-10T08:58:21;-0.60;97.40
29201;DHT22;16244;51.956;12.980;2022-12-10T09:00:49;-0.50;97.40
29201;DHT22;16244;51.956;12.980;2022-12-10T09:03:17;-0.50;97.30
29201;DHT22;16244;51.956;12.980;2022-12-10T09:05:44;-0.50;97.30
29201;DHT22;16244;51.956;12.980;2022-12-10T09:08:11;-0.40;97.20
29201;DHT22;16244;51.956;12.980;2022-12-10T09:10:39;-0.40;97.30
29201;DHT22;16244;51.956;12.980;2022-12-10T09:13:07;-0.50;97.20
29201;DHT22;16244;51.956;12.980;2022-12-10T09:15:35;-0.50;97.00
29201;DHT22;16244;51.956;12.980;2022-12-10T09:18:02;-0.40;96.70
29201;DHT22;16244;51.956;12.980;2022-12-10T09:20:29;-0.40;96.60
29201;DHT22;16244;51.956;12.980;2022-12-10T09:22:56;-0.40;96.80
29201;DHT22;16244;51.956;12.980;2022-12-10T09:25:23;-0.40;97.00
29201;DHT22;16244;51.956;12.980;2022-12-10T09:27:50;-0.40;96.80
29201;DHT22;16244;51.956;12.980;2022-12-10T09:30:19;-0.50;96.60
29201;DHT22;16244;51.956;12.980;2022-12-10T09:32:46;-0.50;96.80
29201;DHT22;16244;51.956;12.980;2022-12-10T09:35:14;-0.40;96.80
29201;DHT22;16244;51.956;12.980;2022-12-10T09:37:41;-0.40;96.40
29201;DHT22;16244;51.956;12.980;2022-12-10T09:40:13;-0.30;96.40
29201;DHT22;16244;51.956;12.980;2022-12-10T09:42:49;-0.30;96.40
29201;DHT22;16244;51.956;12.980;2022-12-10T09:45:26;-0.40;96.20
29201;DHT22;16244;51.956;12.980;2022-12-10T09:48:02;-0.40;96.40
29201;DHT22;16244;51.956;12.980;2022-12-10T09:50:33;-0.40;96.20
29201;DHT22;16244;51.956;12.980;2022-12-10T09:53:02;-0.30;96.50
29201;DHT22;16244;51.956;12.980;2022-12-10T09:55:34;-0.20;96.60
29201;DHT22;16244;51.956;12.980;2022-12-10T09:58:03;-0.20;96.20
29201;DHT22;16244;51.956;12.980;2022-12-10T10:00:36;-0.20;96.50
29201;DHT22;16244;51.956;12.980;2022-12-10T10:03:04;-0.10;96.10
29201;DHT22;16244;51.956;12.980;2022-12-10T10:05:35;0.00;96.00
29201;DHT22;16244;51.956;12.980;2022-12-10T10:08:05;0.10;96.00
29201;DHT22;16244;51.956;12.980;2022-12-10T10:10:36;0.10;96.10
29201;DHT22;16244;51.956;12.980;2022-12-10T10:13:14;0.10;95.90
29201;DHT22;16244;51.956;12.980;2022-12-10T10:15:45;0.20;96.10
29201;DHT22;16244;51.956;12.980;2022-12-10T10:18:17;0.20;95.80
29201;DHT22;16244;51.956;12.980;2022-12-10T10:20:49;0.20;95.50
29201;DHT22;16244;51.956;12.980;2022-12-10T10:23:16;0.00;95.50
29201;DHT22;16244;51.956;12.980;2022-12-10T10:25:44;0.00;96.00
29201;DHT22;16244;51.956;12.980;2022-12-10T10:28:14;0.20;96.20
29201;DHT22;16244;51.956;12.980;2022-12-10T10:30:45;0.20;95.80
29201;DHT22;16244;51.956;12.980;2022-12-10T10:33:14;0.10;95.60
29201;DHT22;16244;51.956;12.980;2022-12-10T10:35:43;0.10;95.80
29201;DHT22;16244;51.956;12.980;2022-12-10T10:38:17;0.10;95.90
29201;DHT22;16244;51.956;12.980;2022-12-10T10:40:50;0.20;95.90
29201;DHT22;16244;51.956;12.980;2022-12-10T10:43:20;0.00;95.70
29201;DHT22;16244;51.956;12.980;2022-12-10T10:45:52;0.10;95.60
29201;DHT22;16244;51.956;12.980;2022-12-10T10:48:22;0.10;95.40
29201;DHT22;16244;51.956;12.980;2022-12-10T10:50:51;0.00;95.90
29201;DHT22;16244;51.956;12.980;2022-12-10T10:53:28;0.10;95.90
29201;DHT22;16244;51.956;12.980;2022-12-10T10:56:00;0.10;95.80
29201;DHT22;16244;51.956;12.980;2022-12-10T10:58:32;0.10;95.50
29201;DHT22;16244;51.956;12.980;2022-12-10T11:01:03;0.10;96.00
29201;DHT22;16244;51.956;12.980;2022-12-10T11:03:33;0.20;95.70
29201;DHT22;16244;51.956;12.980;2022-12-10T11:06:02;0.10;95.40
29201;DHT22;16244;51.956;12.980;2022-12-10T11:08:32;0.20;95.70
29201;DHT22;16244;51.956;12.980;2022-12-10T11:11:03;0.10;95.40
29201;DHT22;16244;51.956;12.980;2022-12-10T11:13:32;0.10;96.00
29201;DHT22;16244;51.956;12.980;2022-12-10T11:16:11;-0.10;95.20
29201;DHT22;16244;51.956;12.980;2022-12-10T11:18:40;0.00;95.70
29201;DHT22;16244;51.956;12.980;2022-12-10T11:21:16;-0.10;95.10
29201;DHT22;16244;51.956;12.980;2022-12-10T11:23:46;-0.10;95.80
29201;DHT22;16244;51.956;12.980;2022-12-10T11:26:38;0.00;95.80
29201;DHT22;16244;51.956;12.980;2022-12-10T11:29:18;0.00;95.30
29201;DHT22;16244;51.956;12.980;2022-12-10T11:32:07;0.10;95.70
29201;DHT22;16244;51.956;12.980;2022-12-10T11:34:47;0.00;95.10
29201;DHT22;16244;51.956;12.980;2022-12-10T11:37:24;-0.10;95.30
29201;DHT22;16244;51.956;12.980;2022-12-10T11:40:02;-0.20;95.60
29201;DHT22;16244;51.956;12.980;2022-12-10T11:42:39;-0.10;95.70
29201;DHT22;16244;51.956;12.980;2022-12-10T11:45:16;0.00;95.90
29201;DHT22;16244;51.956;12.980;2022-12-10T11:47:56;0.00;95.50
29201;DHT22;16244;51.956;12.980;2022-12-10T11:50:36;0.00;95.40
29201;DHT22;16244;51.956;12.980;2022-12-10T11:53:25;0.00;95.40
29201;DHT22;16244;51.956;12.980;2022-12-10T11:56:04;0.10;95.30
29201;DHT22;16244;51.956;12.980;2022-12-10T11:58:43;0.00;94.90
29201;DHT22;16244;51.956;12.980;2022-12-10T12:01:20;0.10;95.20
29201;DHT22;16244;51.956;12.980;2022-12-10T12:04:06;0.10;95.40
29201;DHT22;16244;51.956;12.980;2022-12-10T12:09:38;0.00;95.20
29201;DHT22;16244;51.956;12.980;2022-12-10T12:12:17;0.10;95.10
29201;DHT22;16244;51.956;12.980;2022-12-10T12:14:49;0.10;94.80
29201;DHT22;16244;51.956;12.980;2022-12-10T12:17:21;0.00;95.00
29201;DHT22;16244;51.956;12.980;2022-12-10T12:19:53;0.00;95.20
29201;DHT22;16244;51.956;12.980;2022-12-10T12:22:25;0.10;95.20
29201;DHT22;16244;51.956;12.980;2022-12-10T12:24:55;0.00;95.50
29201;DHT22;16244;51.956;12.980;2022-12-10T12:27:29;0.10;95.50
29201;DHT22;16244;51.956;12.980;2022-12-10T12:30:03;-0.10;95.30
29201;DHT22;16244;51.956;12.980;2022-12-10T12:32:38;0.00;95.70
29201;DHT22;16244;51.956;12.980;2022-12-10T12:35:12;0.00;95.50
29201;DHT22;16244;51.956;12.980;2022-12-10T12:37:45;0.10;95.20
29201;DHT22;16244;51.956;12.980;2022-12-10T12:40:15;0.10;94.90
29201;DHT22;16244;51.956;12.980;2022-12-10T12:42:50;0.00;94.90
29201;DHT22;16244;51.956;12.980;2022-12-10T12:45:24;0.00;95.20
29201;DHT22;16244;51.956;12.980;2022-12-10T12:47:58;0.10;95.00
29201;DHT22;16244;51.956;12.980;2022-12-10T12:50:37;0.20;94.90
29201;DHT22;16244;51.956;12.980;2022-12-10T12:53:09;0.30;94.80
29201;DHT22;16244;51.956;12.980;2022-12-10T12:55:45;0.20;94.50
29201;DHT22;16244;51.956;12.980;2022-12-10T12:58:22;0.20;94.40
29201;DHT22;16244;51.956;12.980;2022-12-10T13:00:55;0.20;94.30
29201;DHT22;16244;51.956;12.980;2022-12-10T13:03:34;0.20;94.50
29201;DHT22;16244;51.956;12.980;2022-12-10T13:06:18;0.10;94.50
29201;DHT22;16244;51.956;12.980;2022-12-10T13:08:47;0.10;95.00
29201;DHT22;16244;51.956;12.980;2022-12-10T13:11:17;0.10;95.00
29201;DHT22;16244;51.956;12.980;2022-12-10T13:17:00;0.20;94.90
29201;DHT22;16244;51.956;12.980;2022-12-10T13:19:29;0.20;95.10
29201;DHT22;16244;51.956;12.980;2022-12-10T13:22:04;0.10;95.10
29201;DHT22;16244;51.956;12.980;2022-12-10T13:24:47;0.20;95.40
29201;DHT22;16244;51.956;12.980;2022-12-10T13:27:30;0.30;95.40
29201;DHT22;16244;51.956;12.980;2022-12-10T13:30:03;0.30;95.60
29201;DHT22;16244;51.956;12.980;2022-12-10T13:32:45;0.20;94.80
29201;DHT22;16244;51.956;12.980;2022-12-10T13:35:25;0.10;95.20
29201;DHT22;16244;51.956;12.980;2022-12-10T13:37:58;0.10;95.50
29201;DHT22;16244;51.956;12.980;2022-12-10T13:40:39;0.10;95.40
29201;DHT22;16244;51.956;12.980;2022-12-10T13:43:27;0.00;95.40
29201;DHT22;16244;51.956;12.980;2022-12-10T13:46:24;0.00;95.50
29201;DHT22;16244;51.956;12.980;2022-12-10T13:48:53;0.00;95.50
29201;DHT22;16244;51.956;12.980;2022-12-10T13:51:55;0.00;95.50
29201;DHT22;16244;51.956;12.980;2022-12-10T13:54:40;0.00;95.80
29201;DHT22;16244;51.956;12.980;2022-12-10T13:57:21;0.00;95.80
29201;DHT22;16244;51.956;12.980;2022-12-10T13:59:59;-0.10;95.70
29201;DHT22;16244;51.956;12.980;2022-12-10T14:02:53;-0.10;95.70
29201;DHT22;16244;51.956;12.980;2022-12-10T14:05:41;-0.10;95.70
29201;DHT22;16244;51.956;12.980;2022-12-10T14:08:12;-0.10;95.90
29201;DHT22;16244;51.956;12.980;2022-12-10T14:10:42;-0.10;95.60
29201;DHT22;16244;51.956;12.980;2022-12-10T14:13:11;-0.10;95.50
29201;DHT22;16244;51.956;12.980;2022-12-10T14:15:40;-0.10;95.70
29201;DHT22;16244;51.956;12.980;2022-12-10T14:18:11;-0.20;95.40
29201;DHT22;16244;51.956;12.980;2022-12-10T14:20:42;-0.10;95.40
29201;DHT22;16244;51.956;12.980;2022-12-10T14:23:22;-0.10;95.30
29201;DHT22;16244;51.956;12.980;2022-12-10T14:26:06;-0.20;95.10
29201;DHT22;16244;51.956;12.980;2022-12-10T14:28:39;-0.30;95.20
29201;DHT22;16244;51.956;12.980;2022-12-10T14:31:12;-0.20;95.50
29201;DHT22;16244;51.956;12.980;2022-12-10T14:33:41;-0.20;95.60
29201;DHT22;16244;51.956;12.980;2022-12-10T14:36:16;-0.20;95.60
29201;DHT22;16244;51.956;12.980;2022-12-10T14:38:45;-0.10;95.80
29201;DHT22;16244;51.956;12.980;2022-12-10T14:41:17;-0.20;95.60
29201;DHT22;16244;51.956;12.980;2022-12-10T14:43:46;-0.20;95.70
29201;DHT22;16244;51.956;12.980;2022-12-10T14:46:16;-0.20;95.70
29201;DHT22;16244;51.956;12.980;2022-12-10T14:48:43;-0.20;95.70
29201;DHT22;16244;51.956;12.980;2022-12-10T14:51:14;-0.20;95.70
29201;DHT22;16244;51.956;12.980;2022-12-10T14:53:42;-0.20;95.70
29201;DHT22;16244;51.956;12.980;2022-12-10T14:56:13;-0.30;95.80
29201;DHT22;16244;51.956;12.980;2022-12-10T14:58:48;-0.30;96.00
29201;DHT22;16244;51.956;12.980;2022-12-10T15:01:22;-0.30;95.80
29201;DHT22;16244;51.956;12.980;2022-12-10T15:03:50;-0.30;95.90
29201;DHT22;16244;51.956;12.980;2022-12-10T15:06:19;-0.30;95.90
29201;DHT22;16244;51.956;12.980;2022-12-10T15:08:47;-0.40;95.80
29201;DHT22;16244;51.956;12.980;2022-12-10T15:11:17;-0.30;96.10
29201;DHT22;16244;51.956;12.980;2022-12-10T15:13:48;-0.30;96.00
29201;DHT22;16244;51.956;12.980;2022-12-10T15:16:18;-0.40;96.10
29201;DHT22;16244;51.956;12.980;2022-12-10T15:18:46;-0.40;96.30
29201;DHT22;16244;51.956;12.980;2022-12-10T15:21:15;-0.30;96.30
29201;DHT22;16244;51.956;12.980;2022-12-10T15:23:43;-0.30;96.20
29201;DHT22;16244;51.956;12.980;2022-12-10T15:26:15;-0.30;96.20
29201;DHT22;16244;51.956;12.980;2022-12-10T15:28:45;-0.30;95.80
29201;DHT22;16244;51.956;12.980;2022-12-10T15:31:21;-0.50;95.80
29201;DHT22;16244;51.956;12.980;2022-12-10T15:33:50;-0.40;96.00
29201;DHT22;16244;51.956;12.980;2022-12-10T15:36:23;-0.50;96.00
29201;DHT22;16244;51.956;12.980;2022-12-10T15:38:52;-0.50;96.10
29201;DHT22;16244;51.956;12.980;2022-12-10T15:41:44;-0.50;95.80
29201;DHT22;16244;51.956;12.980;2022-12-10T15:44:19;-0.50;96.00
29201;DHT22;16244;51.956;12.980;2022-12-10T15:46:58;-0.50;96.00
29201;DHT22;16244;51.956;12.980;2022-12-10T15:49:25;-0.50;96.00
29201;DHT22;16244;51.956;12.980;2022-12-10T15:51:52;-0.50;96.00